Time;durP1;ratioP1;P1;durP2;ratioP2;P2;SDS_P1;SDS_P2;PMS_P1;PMS_P2;Temp;Humidity;BMP_temperature;BMP_pressure;BME280_temperature;BME280_humidity;BME280_pressure;Samples;Min_cycle;Max_cycle;Signal;HPM_P1;HPM_P2
2021/05/03 00:00:38;;;;;;;7.97;4.80;;;4.70;99.90;;;;;;5051596;28;20258;-78
2021/05/03 00:03:23;;;;;;;7.57;4.90;;;4.70;99.90;;;;;;5054337;28;20258;-78
2021/05/03 00:06:08;;;;;;;9.27;5.53;;;4.70;99.90;;;;;;5069943;28;20198;-78
2021/05/03 00:08:54;;;;;;;8.80;5.10;;;4.60;99.90;;;;;;5071083;28;20249;-79
2021/05/03 00:11:39;;;;;;;10.00;5.50;;;4.60;99.90;;;;;;5073134;28;20266;-78
2021/05/03 00:14:24;;;;;;;11.37;5.43;;;4.60;99.90;;;;;;5072935;28;20199;-78
2021/05/03 00:17:09;;;;;;;9.83;6.07;;;4.60;99.90;;;;;;5053278;28;20282;-79
2021/05/03 00:19:53;;;;;;;9.87;5.20;;;4.60;99.90;;;;;;5051981;28;20568;-78
2021/05/03 00:22:38;;;;;;;7.83;4.77;;;4.60;99.90;;;;;;5050666;28;20224;-79
2021/05/03 00:25:23;;;;;;;10.90;5.70;;;4.60;99.90;;;;;;5052909;28;20253;-79
2021/05/03 00:28:09;;;;;;;10.60;5.20;;;4.60;99.90;;;;;;5051366;28;20207;-78
2021/05/03 00:30:54;;;;;;;10.90;5.00;;;4.60;99.90;;;;;;5050415;28;20230;-78
2021/05/03 00:33:39;;;;;;;9.83;5.10;;;4.60;99.90;;;;;;5050569;28;22483;-78
2021/05/03 00:36:24;;;;;;;9.47;5.70;;;4.60;99.90;;;;;;5050615;28;20230;-78
2021/05/03 00:39:08;;;;;;;9.53;5.63;;;4.60;99.90;;;;;;5046912;28;20197;-78
2021/05/03 00:41:54;;;;;;;12.37;5.97;;;4.60;99.90;;;;;;5050420;28;20235;-78
2021/05/03 00:44:39;;;;;;;10.13;5.60;;;4.60;99.90;;;;;;5049373;28;20342;-78
2021/05/03 00:47:25;;;;;;;9.00;5.40;;;4.60;99.90;;;;;;5063212;28;20244;-78
2021/05/03 00:50:13;;;;;;;9.57;5.67;;;4.60;99.90;;;;;;5070725;28;20214;-78
2021/05/03 00:52:58;;;;;;;10.03;6.83;;;4.60;99.90;;;;;;5056599;28;20233;-78
2021/05/03 00:55:42;;;;;;;10.10;6.30;;;4.50;99.90;;;;;;5047190;28;20211;-77
2021/05/03 00:58:28;;;;;;;11.73;7.30;;;4.50;99.90;;;;;;5048819;28;20283;-78
2021/05/03 01:01:13;;;;;;;9.63;6.57;;;4.50;99.90;;;;;;5049324;28;20230;-77
2021/05/03 01:03:59;;;;;;;14.07;8.97;;;4.50;99.90;;;;;;5047883;28;20245;-78
2021/05/03 01:06:44;;;;;;;13.50;7.93;;;4.50;99.90;;;;;;5045708;28;20205;-78
2021/05/03 01:09:29;;;;;;;15.20;7.40;;;4.50;99.90;;;;;;5050430;28;20207;-78
2021/05/03 01:12:14;;;;;;;12.53;7.80;;;4.50;99.90;;;;;;5049172;28;20219;-78
2021/05/03 01:14:59;;;;;;;11.83;7.50;;;4.60;99.90;;;;;;5050678;28;20241;-78
2021/05/03 01:17:44;;;;;;;13.23;7.57;;;4.60;99.90;;;;;;5050941;28;20218;-78
2021/05/03 01:20:31;;;;;;;12.70;7.10;;;4.70;99.90;;;;;;5049514;28;20920;-79
2021/05/03 01:23:17;;;;;;;14.67;6.73;;;4.70;99.90;;;;;;5048920;28;20233;-79
2021/05/03 01:26:02;;;;;;;11.80;6.93;;;4.70;99.90;;;;;;5047861;28;20257;-78
2021/05/03 01:28:47;;;;;;;12.37;7.27;;;4.80;99.90;;;;;;5049206;28;20283;-78
2021/05/03 01:31:32;;;;;;;10.77;6.57;;;4.80;99.90;;;;;;5052718;28;20234;-79
2021/05/03 01:34:17;;;;;;;13.70;7.93;;;4.80;99.90;;;;;;5053488;28;20206;-77
2021/05/03 01:37:02;;;;;;;12.43;7.33;;;4.80;99.90;;;;;;5051066;28;20206;-77
2021/05/03 01:39:47;;;;;;;11.50;6.97;;;4.80;99.90;;;;;;5048809;28;20228;-77
2021/05/03 01:42:34;;;;;;;12.90;7.10;;;4.80;99.90;;;;;;5055837;28;20245;-77
2021/05/03 01:45:22;;;;;;;11.73;7.07;;;4.80;99.90;;;;;;5050998;28;20638;-77
2021/05/03 01:48:10;;;;;;;15.70;7.43;;;4.80;99.90;;;;;;5048789;28;20219;-77
2021/05/03 01:50:57;;;;;;;11.03;6.47;;;4.80;99.90;;;;;;5045851;28;20254;-77
2021/05/03 01:53:42;;;;;;;15.60;7.93;;;4.70;99.90;;;;;;5047151;28;20210;-76
2021/05/03 01:56:27;;;;;;;11.70;6.90;;;4.70;99.90;;;;;;5045835;28;20202;-76
2021/05/03 01:59:12;;;;;;;10.57;6.90;;;4.70;99.90;;;;;;5047808;28;20203;-77
2021/05/03 02:01:57;;;;;;;13.80;7.23;;;4.70;99.90;;;;;;5046969;28;20226;-77
2021/05/03 02:04:41;;;;;;;11.70;7.37;;;4.70;99.90;;;;;;5042947;28;20317;-77
2021/05/03 02:07:26;;;;;;;14.40;7.50;;;4.70;99.90;;;;;;5046861;28;20211;-77
2021/05/03 02:10:14;;;;;;;13.37;8.33;;;4.70;99.90;;;;;;5044357;28;20230;-77
2021/05/03 02:13:00;;;;;;;13.90;8.37;;;4.70;99.90;;;;;;5045874;28;20230;-77
2021/05/03 02:15:47;;;;;;;12.60;7.53;;;4.70;99.90;;;;;;5043977;28;20210;-77
2021/05/03 02:18:32;;;;;;;10.10;6.43;;;4.60;99.90;;;;;;5045898;28;20226;-76
2021/05/03 02:21:17;;;;;;;11.87;7.40;;;4.60;99.90;;;;;;5047002;28;20308;-77
2021/05/03 02:24:03;;;;;;;12.17;7.60;;;4.70;99.90;;;;;;5043755;28;20214;-77
2021/05/03 02:26:49;;;;;;;12.37;7.07;;;4.60;99.90;;;;;;5044380;28;20264;-77
2021/05/03 02:29:35;;;;;;;13.67;8.87;;;4.60;99.90;;;;;;5046019;28;20218;-77
2021/05/03 02:32:20;;;;;;;13.07;7.67;;;4.60;99.90;;;;;;5045491;28;20195;-77
2021/05/03 02:35:07;;;;;;;12.33;7.97;;;4.60;99.90;;;;;;5042998;28;20198;-77
2021/05/03 02:37:55;;;;;;;13.87;7.33;;;4.60;99.90;;;;;;5043451;28;20206;-77
2021/05/03 02:40:40;;;;;;;12.77;8.13;;;4.60;99.90;;;;;;5047241;28;20219;-76
2021/05/03 02:43:25;;;;;;;11.47;7.47;;;4.50;99.90;;;;;;5046922;28;20206;-77
2021/05/03 02:46:10;;;;;;;13.97;8.30;;;4.50;99.90;;;;;;5044176;28;20253;-77
2021/05/03 02:48:56;;;;;;;14.47;7.87;;;4.50;99.90;;;;;;5045142;28;20702;-78
2021/05/03 02:51:41;;;;;;;13.23;8.03;;;4.50;99.90;;;;;;5046107;28;20226;-77
2021/05/03 02:54:26;;;;;;;16.13;7.50;;;4.50;99.90;;;;;;5042305;28;20205;-78
2021/05/03 02:57:11;;;;;;;15.13;9.67;;;4.50;99.90;;;;;;5046609;28;20283;-77
2021/05/03 02:59:56;;;;;;;14.43;9.07;;;4.50;99.90;;;;;;5047356;28;20199;-78
2021/05/03 03:02:42;;;;;;;12.63;8.20;;;4.50;99.90;;;;;;5046971;28;20245;-77
2021/05/03 03:05:27;;;;;;;12.07;7.93;;;4.50;99.90;;;;;;5047045;28;20195;-78
2021/05/03 03:08:12;;;;;;;11.07;5.97;;;4.50;99.90;;;;;;5048240;28;20206;-78
2021/05/03 03:10:57;;;;;;;15.40;8.27;;;4.50;99.90;;;;;;5049535;28;20247;-77
2021/05/03 03:13:41;;;;;;;13.37;7.97;;;4.50;99.90;;;;;;5049241;28;20206;-77
2021/05/03 03:16:26;;;;;;;12.67;8.20;;;4.50;99.90;;;;;;5045374;28;20211;-77
2021/05/03 03:19:12;;;;;;;16.57;8.60;;;4.50;99.90;;;;;;5050274;28;20242;-77
2021/05/03 03:21:57;;;;;;;15.17;8.33;;;4.50;99.90;;;;;;5051350;28;20297;-77
2021/05/03 03:24:42;;;;;;;13.63;9.17;;;4.50;99.90;;;;;;5047703;28;20575;-77
2021/05/03 03:27:27;;;;;;;15.37;8.83;;;4.50;99.90;;;;;;5047927;28;20249;-77
2021/05/03 03:30:14;;;;;;;12.93;7.60;;;4.50;99.90;;;;;;5051354;28;20277;-77
2021/05/03 03:32:59;;;;;;;13.77;8.37;;;4.50;99.90;;;;;;5047886;28;20268;-77
2021/05/03 03:35:45;;;;;;;14.63;8.97;;;4.50;99.90;;;;;;5049048;28;20286;-79
2021/05/03 03:38:29;;;;;;;13.03;8.23;;;4.50;99.90;;;;;;5046412;28;20214;-77
2021/05/03 03:41:14;;;;;;;19.23;9.20;;;4.50;99.90;;;;;;5048425;28;20295;-77
2021/05/03 03:43:59;;;;;;;15.53;9.10;;;4.50;99.90;;;;;;5048852;28;20219;-77
2021/05/03 03:46:44;;;;;;;11.23;8.00;;;4.50;99.90;;;;;;5067604;28;20253;-77
2021/05/03 03:49:29;;;;;;;14.13;9.27;;;4.50;99.90;;;;;;5072912;28;20218;-78
2021/05/03 03:52:15;;;;;;;16.17;9.70;;;4.50;99.90;;;;;;5048465;28;20203;-77
2021/05/03 03:55:00;;;;;;;14.13;9.20;;;4.50;99.90;;;;;;5048385;28;20279;-77
2021/05/03 03:57:45;;;;;;;16.20;10.03;;;4.40;99.90;;;;;;5050890;28;20207;-77
2021/05/03 04:00:30;;;;;;;15.80;9.17;;;4.50;99.90;;;;;;5048374;28;20250;-77
2021/05/03 04:03:15;;;;;;;14.87;8.97;;;4.40;99.90;;;;;;5049233;28;20214;-77
2021/05/03 04:06:15;;;;;;;16.00;10.77;;;4.40;99.90;;;;;;5048245;28;20289;-78
2021/05/03 04:09:07;;;;;;;15.10;9.87;;;4.50;99.90;;;;;;5047465;28;20305;-77
2021/05/03 04:12:24;;;;;;;17.33;10.57;;;4.50;99.90;;;;;;5048971;28;20264;-78
2021/05/03 04:21:22;;;;;;;13.93;9.10;;;4.50;99.90;;;;;;5046850;28;20261;-77
2021/05/03 04:24:13;;;;;;;17.87;9.93;;;4.50;99.90;;;;;;5052303;28;20253;-78
2021/05/03 04:26:58;;;;;;;15.30;9.83;;;4.50;99.90;;;;;;5049252;28;20206;-78
2021/05/03 04:29:42;;;;;;;13.07;9.53;;;4.50;99.90;;;;;;5047765;28;20273;-78
2021/05/03 04:32:27;;;;;;;14.00;9.50;;;4.50;99.90;;;;;;5049021;28;20214;-78
2021/05/03 04:35:12;;;;;;;13.47;8.97;;;4.50;99.90;;;;;;5048584;28;20284;-77
2021/05/03 04:37:57;;;;;;;13.43;9.43;;;4.50;99.90;;;;;;5048167;28;20210;-77
2021/05/03 04:40:45;;;;;;;11.27;7.90;;;4.50;99.90;;;;;;5047241;28;20278;-77
2021/05/03 04:43:30;;;;;;;13.33;8.47;;;4.60;99.90;;;;;;5047226;28;20215;-77
2021/05/03 04:46:16;;;;;;;11.20;7.03;;;4.60;99.90;;;;;;5044405;28;20339;-77
2021/05/03 04:49:01;;;;;;;16.87;9.43;;;4.60;99.90;;;;;;5047965;28;20227;-77
2021/05/03 04:51:46;;;;;;;14.13;9.43;;;4.70;99.90;;;;;;5049421;28;20252;-77
2021/05/03 04:54:31;;;;;;;10.97;7.10;;;4.60;99.90;;;;;;5045339;28;20578;-77
2021/05/03 04:57:16;;;;;;;17.17;8.63;;;4.70;99.90;;;;;;5044679;28;20639;-77
2021/05/03 05:00:01;;;;;;;15.30;10.07;;;4.70;99.90;;;;;;5045685;28;20230;-77
2021/05/03 05:02:46;;;;;;;11.20;7.47;;;4.70;99.90;;;;;;5052473;28;20513;-78
2021/05/03 05:05:31;;;;;;;13.63;9.70;;;4.80;99.90;;;;;;5039837;28;20203;-77
2021/05/03 05:08:16;;;;;;;15.00;9.70;;;4.80;99.90;;;;;;5041409;28;20324;-77
2021/05/03 05:11:01;;;;;;;14.27;8.30;;;4.90;99.90;;;;;;5041032;28;20277;-77
2021/05/03 05:13:46;;;;;;;13.00;8.00;;;4.90;99.90;;;;;;5042278;28;20273;-77
2021/05/03 05:16:31;;;;;;;15.10;8.53;;;5.00;99.90;;;;;;5042090;28;20207;-77
2021/05/03 05:19:17;;;;;;;15.63;7.73;;;5.00;99.90;;;;;;5038756;28;20277;-77
2021/05/03 05:22:02;;;;;;;12.07;8.17;;;5.00;99.90;;;;;;5044496;28;20237;-77
2021/05/03 05:24:47;;;;;;;11.47;8.23;;;5.10;99.90;;;;;;5043380;28;20278;-77
2021/05/03 05:27:31;;;;;;;14.50;9.30;;;5.20;99.90;;;;;;5040796;28;20207;-77
2021/05/03 05:30:17;;;;;;;12.83;8.10;;;5.20;99.90;;;;;;5039454;28;20252;-77
2021/05/03 05:33:02;;;;;;;15.17;9.33;;;5.20;99.90;;;;;;5043801;28;20238;-77
2021/05/03 05:35:47;;;;;;;13.10;7.70;;;5.20;99.90;;;;;;5041791;28;20257;-78
2021/05/03 05:38:32;;;;;;;14.57;9.30;;;5.30;99.90;;;;;;5046829;28;20234;-78
2021/05/03 05:41:18;;;;;;;14.53;9.30;;;5.30;99.90;;;;;;5041675;28;20219;-78
2021/05/03 05:44:06;;;;;;;11.53;7.90;;;5.40;99.90;;;;;;5046222;28;20219;-78
2021/05/03 05:46:52;;;;;;;15.23;8.80;;;5.40;99.90;;;;;;5041872;28;20222;-77
2021/05/03 05:49:36;;;;;;;10.67;6.70;;;5.50;99.90;;;;;;5042407;28;20932;-78
2021/05/03 05:52:21;;;;;;;15.03;9.20;;;5.50;99.90;;;;;;5045074;28;21879;-77
2021/05/03 05:55:06;;;;;;;13.07;8.27;;;5.60;99.90;;;;;;5045655;28;20575;-78
2021/05/03 05:57:51;;;;;;;15.07;8.70;;;5.70;99.90;;;;;;5048044;28;20210;-77
2021/05/03 06:00:36;;;;;;;13.93;7.60;;;5.80;99.90;;;;;;5045977;28;20344;-77
2021/05/03 06:03:30;;;;;;;12.90;8.03;;;5.90;99.90;;;;;;5048902;28;20210;-78
2021/05/03 06:06:15;;;;;;;11.07;7.67;;;5.90;99.90;;;;;;5048105;28;20287;-78
2021/05/03 06:09:01;;;;;;;14.37;7.43;;;6.00;99.90;;;;;;5049299;28;20276;-78
2021/05/03 06:11:46;;;;;;;10.50;6.87;;;6.10;99.90;;;;;;5047986;28;20226;-78
2021/05/03 06:14:31;;;;;;;15.20;6.53;;;5.90;99.90;;;;;;5053448;28;20226;-78
2021/05/03 06:17:16;;;;;;;10.93;7.37;;;6.20;99.90;;;;;;5048098;28;20260;-78
2021/05/03 06:20:01;;;;;;;9.73;5.97;;;6.30;99.90;;;;;;5057923;28;20234;-77
2021/05/03 06:22:46;;;;;;;12.77;7.20;;;6.40;99.90;;;;;;5055214;28;20206;-77
2021/05/03 06:25:31;;;;;;;12.17;6.97;;;6.50;99.90;;;;;;5047028;28;20210;-77
2021/05/03 06:28:16;;;;;;;12.30;6.70;;;6.60;99.90;;;;;;5051045;28;20258;-77
2021/05/03 06:31:01;;;;;;;10.57;5.70;;;6.60;99.90;;;;;;5046883;28;20312;-77
2021/05/03 06:33:46;;;;;;;14.47;6.83;;;6.70;99.90;;;;;;5048462;28;20569;-77
2021/05/03 06:36:32;;;;;;;9.60;6.30;;;6.80;99.90;;;;;;5046023;28;20238;-77
2021/05/03 06:39:16;;;;;;;10.93;6.67;;;6.90;99.90;;;;;;5050218;28;20269;-77
2021/05/03 06:42:01;;;;;;;11.90;6.43;;;7.00;99.90;;;;;;5069259;28;20269;-77
2021/05/03 06:44:46;;;;;;;9.03;5.63;;;7.10;99.90;;;;;;5072062;28;20207;-77
2021/05/03 06:47:31;;;;;;;8.10;4.90;;;7.20;99.90;;;;;;5050955;28;20214;-76
2021/05/03 06:50:17;;;;;;;8.40;5.40;;;7.30;99.90;;;;;;5051706;28;20284;-79
2021/05/03 06:53:03;;;;;;;9.90;5.90;;;7.50;99.90;;;;;;5050897;28;20254;-76
2021/05/03 06:55:48;;;;;;;6.87;3.83;;;7.60;99.90;;;;;;5048806;28;20218;-77
2021/05/03 06:58:33;;;;;;;8.40;4.90;;;7.70;99.90;;;;;;5077132;28;20234;-76
2021/05/03 07:01:18;;;;;;;6.93;5.00;;;7.80;99.90;;;;;;5076084;28;20226;-78
2021/05/03 07:04:03;;;;;;;8.83;4.57;;;7.90;99.90;;;;;;5076067;28;20202;-78
2021/05/03 07:06:49;;;;;;;7.47;5.50;;;8.00;99.90;;;;;;5074735;28;20226;-77
2021/05/03 07:09:35;;;;;;;9.90;5.57;;;8.10;99.90;;;;;;5059807;28;20289;-79
2021/05/03 07:12:22;;;;;;;9.50;4.97;;;8.20;99.90;;;;;;5052567;28;20724;-78
2021/05/03 07:15:08;;;;;;;7.33;4.77;;;8.30;99.90;;;;;;5049442;28;20202;-78
2021/05/03 07:17:53;;;;;;;8.10;5.00;;;8.30;99.90;;;;;;5047136;28;20260;-77
2021/05/03 07:20:38;;;;;;;8.03;4.80;;;8.40;99.90;;;;;;5046207;28;20222;-77
2021/05/03 07:23:23;;;;;;;8.00;5.43;;;8.40;99.90;;;;;;5048197;28;20265;-77
2021/05/03 07:26:09;;;;;;;10.80;5.70;;;8.50;99.90;;;;;;5045961;28;20261;-77
2021/05/03 07:28:54;;;;;;;9.80;5.93;;;8.60;99.90;;;;;;5046171;28;20715;-77
2021/05/03 07:31:39;;;;;;;10.70;4.83;;;8.70;99.90;;;;;;5048250;28;20303;-77
2021/05/03 07:34:24;;;;;;;11.43;6.10;;;8.80;99.90;;;;;;5045579;28;20287;-77
2021/05/03 07:37:09;;;;;;;8.43;6.47;;;8.90;99.90;;;;;;5044878;28;20290;-78
2021/05/03 07:39:54;;;;;;;9.20;6.40;;;9.00;99.90;;;;;;5045809;28;20261;-77
2021/05/03 07:42:40;;;;;;;10.43;5.87;;;9.10;99.90;;;;;;5044693;28;20291;-78
2021/05/03 07:45:24;;;;;;;9.80;6.90;;;9.20;99.90;;;;;;5042142;28;20294;-77
2021/05/03 07:48:09;;;;;;;13.77;9.03;;;9.40;99.90;;;;;;5049884;28;20207;-77
2021/05/03 07:50:54;;;;;;;12.73;9.47;;;9.50;99.90;;;;;;5047659;28;20242;-77
2021/05/03 07:53:39;;;;;;;11.37;8.47;;;9.70;99.90;;;;;;5046211;28;20237;-77
2021/05/03 07:56:24;;;;;;;12.97;9.03;;;9.80;99.90;;;;;;5048746;28;20219;-78
2021/05/03 07:59:09;;;;;;;13.37;9.63;;;10.00;99.90;;;;;;5048349;28;20290;-78
2021/05/03 08:01:54;;;;;;;12.87;9.17;;;10.10;99.90;;;;;;5049491;28;20783;-78
2021/05/03 08:04:39;;;;;;;13.27;8.90;;;10.20;99.90;;;;;;5047342;28;21037;-77
2021/05/03 08:07:24;;;;;;;15.77;10.47;;;10.30;99.90;;;;;;5053192;28;20218;-77
2021/05/03 08:10:09;;;;;;;14.33;10.67;;;10.50;99.90;;;;;;5046355;28;20641;-78
2021/05/03 08:12:54;;;;;;;12.47;9.03;;;10.60;99.90;;;;;;5049673;28;20233;-78
2021/05/03 08:15:45;;;;;;;12.73;10.07;;;10.70;99.90;;;;;;5047338;28;20263;-78
2021/05/03 08:18:30;;;;;;;13.23;9.80;;;10.80;99.90;;;;;;5046922;28;20214;-78
2021/05/03 08:21:16;;;;;;;14.47;10.87;;;10.90;99.90;;;;;;5049861;28;20238;-77
2021/05/03 08:24:00;;;;;;;13.97;9.37;;;11.00;99.90;;;;;;5047278;28;20264;-78
2021/05/03 08:26:45;;;;;;;15.77;10.83;;;11.10;99.90;;;;;;5044896;28;20202;-78
2021/05/03 08:29:30;;;;;;;13.57;10.13;;;11.20;99.90;;;;;;5046053;28;20237;-77
2021/05/03 08:32:15;;;;;;;13.10;9.00;;;11.30;99.90;;;;;;5048036;28;20206;-78
2021/05/03 08:35:00;;;;;;;13.63;9.43;;;11.40;99.90;;;;;;5044617;28;20261;-77
2021/05/03 08:37:45;;;;;;;14.63;11.47;;;11.50;99.90;;;;;;5047719;28;20207;-78
2021/05/03 08:40:31;;;;;;;14.00;11.53;;;11.60;99.90;;;;;;5052938;28;20552;-77
2021/05/03 08:43:15;;;;;;;13.83;10.17;;;11.70;99.90;;;;;;5048297;28;20215;-77
2021/05/03 08:46:00;;;;;;;13.43;9.50;;;11.80;99.90;;;;;;5046596;28;20849;-78
2021/05/03 08:48:54;;;;;;;14.40;9.70;;;12.00;99.90;;;;;;5050373;28;20273;-78
2021/05/03 08:51:45;;;;;;;15.97;11.27;;;12.10;99.90;;;;;;5046511;28;20311;-78
2021/05/03 08:54:34;;;;;;;12.87;8.90;;;12.20;99.90;;;;;;5045737;28;20569;-78
2021/05/03 08:57:19;;;;;;;16.47;10.93;;;12.30;99.90;;;;;;5047762;28;20574;-78
2021/05/03 09:00:10;;;;;;;14.70;11.17;;;12.40;99.90;;;;;;5047465;28;20289;-79
2021/05/03 09:02:56;;;;;;;17.23;11.00;;;12.60;99.90;;;;;;5041890;28;20211;-78
2021/05/03 09:05:42;;;;;;;12.93;10.27;;;12.70;99.90;;;;;;5047902;28;20210;-78
2021/05/03 09:08:29;;;;;;;15.37;11.20;;;12.90;99.90;;;;;;5049560;28;20266;-78
2021/05/03 09:11:15;;;;;;;13.53;8.13;;;13.00;99.90;;;;;;5049103;28;20238;-78
2021/05/03 09:14:08;;;;;;;16.63;10.57;;;13.20;99.90;;;;;;5046477;28;20250;-78
2021/05/03 09:16:52;;;;;;;19.40;10.67;;;13.30;99.90;;;;;;5049327;28;20327;-78
2021/05/03 09:19:37;;;;;;;16.50;11.87;;;13.50;99.90;;;;;;5054344;28;20720;-78
2021/05/03 09:22:27;;;;;;;14.07;11.30;;;13.60;99.90;;;;;;5049767;28;20255;-78
2021/05/03 09:25:19;;;;;;;13.13;10.10;;;13.80;99.90;;;;;;5053632;28;20215;-79
2021/05/03 09:28:12;;;;;;;10.97;9.60;;;14.00;99.90;;;;;;5052184;28;20227;-79
2021/05/03 09:31:00;;;;;;;13.43;9.50;;;14.40;99.90;;;;;;5052819;28;20250;-79
2021/05/03 09:33:45;;;;;;;15.30;8.93;;;14.90;99.90;;;;;;5058039;28;20217;-79
2021/05/03 09:36:29;;;;;;;11.37;8.87;;;15.40;99.90;;;;;;5072468;28;20187;-80
2021/05/03 09:39:29;;;;;;;13.67;8.80;;;16.00;98.70;;;;;;5070010;28;20224;-79
2021/05/03 09:42:13;;;;;;;11.70;9.50;;;16.70;96.80;;;;;;5058891;28;20223;-79
2021/05/03 09:45:03;;;;;;;17.27;9.43;;;17.30;95.00;;;;;;5059603;28;20302;-79
2021/05/03 09:47:50;;;;;;;11.90;9.60;;;18.00;92.90;;;;;;5054867;28;20257;-79
2021/05/03 09:50:35;;;;;;;11.53;8.23;;;18.50;92.00;;;;;;5045265;28;20227;-79
2021/05/03 09:53:20;;;;;;;11.43;9.43;;;19.00;87.30;;;;;;5054917;28;20198;-79
2021/05/03 09:56:06;;;;;;;10.43;8.53;;;19.60;82.00;;;;;;5052943;28;20240;-79
2021/05/03 09:58:50;;;;;;;10.23;8.30;;;20.10;81.00;;;;;;5057900;28;20316;-79
2021/05/03 10:01:35;;;;;;;9.77;7.97;;;20.50;75.20;;;;;;5060079;28;20223;-79
2021/05/03 10:04:20;;;;;;;14.67;9.27;;;20.80;73.60;;;;;;5060238;28;20199;-79
2021/05/03 10:07:05;;;;;;;10.50;7.47;;;21.10;69.90;;;;;;5055412;28;20231;-79
2021/05/03 10:09:54;;;;;;;14.73;8.80;;;21.30;69.60;;;;;;5052825;28;20252;-79
2021/05/03 10:12:40;;;;;;;12.57;8.10;;;21.50;67.10;;;;;;5056781;28;20204;-79
2021/05/03 10:15:25;;;;;;;11.03;7.70;;;21.70;67.40;;;;;;5054953;28;20213;-79
2021/05/03 10:18:12;;;;;;;8.63;7.13;;;21.90;66.80;;;;;;5049616;28;20243;-79
2021/05/03 10:20:58;;;;;;;9.83;7.83;;;22.20;62.70;;;;;;5056796;28;20216;-79
2021/05/03 10:23:45;;;;;;;9.63;8.03;;;22.50;61.80;;;;;;5056289;28;20208;-79
2021/05/03 10:26:30;;;;;;;10.13;7.87;;;22.80;61.10;;;;;;5059245;28;20238;-79
2021/05/03 10:29:28;;;;;;;11.00;7.73;;;23.10;61.10;;;;;;5053896;28;20214;-80
2021/05/03 10:32:20;;;;;;;10.30;8.33;;;23.30;60.30;;;;;;5058541;28;20229;-79
2021/05/03 10:35:07;;;;;;;10.10;7.70;;;23.50;57.30;;;;;;5060563;28;20210;-79
2021/05/03 10:37:53;;;;;;;8.40;7.50;;;23.80;57.60;;;;;;5060876;28;20206;-79
2021/05/03 10:40:42;;;;;;;11.50;9.40;;;24.10;57.90;;;;;;5061863;28;20230;-80
2021/05/03 10:43:41;;;;;;;10.13;7.43;;;24.20;54.90;;;;;;5058621;28;20211;-80
2021/05/03 10:49:45;;;;;;;11.40;8.73;;;24.40;54.20;;;;;;5056216;28;20220;-80
2021/05/03 10:52:33;;;;;;;13.50;8.87;;;24.40;54.00;;;;;;5060688;28;20230;-79
2021/05/03 10:55:18;;;;;;;10.63;9.50;;;24.40;53.90;;;;;;5060322;28;20244;-80
2021/05/03 10:58:03;;;;;;;11.50;8.50;;;24.40;53.50;;;;;;5058160;28;20203;-80
2021/05/03 11:00:57;;;;;;;11.50;8.70;;;24.30;53.30;;;;;;5057884;28;20320;-79
2021/05/03 11:04:08;;;;;;;10.20;8.20;;;24.20;53.50;;;;;;5056440;28;20287;-79
2021/05/03 11:07:11;;;;;;;10.97;9.17;;;24.10;53.60;;;;;;5057824;28;20584;-79
2021/05/03 11:09:55;;;;;;;11.80;8.93;;;24.10;52.90;;;;;;5057978;28;20217;-79
2021/05/03 11:12:40;;;;;;;12.77;8.97;;;24.10;52.50;;;;;;5056031;28;20213;-79
2021/05/03 11:15:27;;;;;;;9.70;8.27;;;24.20;52.20;;;;;;5051677;28;20215;-78
2021/05/03 11:18:25;;;;;;;9.10;7.97;;;24.30;51.70;;;;;;5052907;28;20743;-78
2021/05/03 11:21:16;;;;;;;8.67;7.50;;;24.30;50.40;;;;;;5058687;28;20250;-79
2021/05/03 11:24:15;;;;;;;8.77;7.00;;;24.40;51.40;;;;;;5056261;28;20477;-79
2021/05/03 11:27:05;;;;;;;8.30;7.50;;;24.50;50.00;;;;;;5061409;28;20218;-79
2021/05/03 11:29:59;;;;;;;9.67;8.17;;;24.60;50.20;;;;;;5067768;28;20236;-79
2021/05/03 11:32:47;;;;;;;10.67;8.03;;;24.50;48.50;;;;;;5058670;28;20927;-81
2021/05/03 11:35:37;;;;;;;9.57;8.50;;;24.30;48.50;;;;;;5053587;28;20205;-79
2021/05/03 11:38:27;;;;;;;17.00;7.90;;;24.00;48.90;;;;;;5052066;28;20202;-79
2021/05/03 11:41:24;;;;;;;8.87;7.73;;;23.80;49.60;;;;;;5049188;28;20361;-79
2021/05/03 11:44:20;;;;;;;10.20;8.50;;;23.50;50.60;;;;;;5048658;28;20231;-79
2021/05/03 11:47:05;;;;;;;8.93;8.03;;;23.20;49.80;;;;;;5052515;28;20256;-80
2021/05/03 11:49:50;;;;;;;8.50;7.63;;;23.00;50.20;;;;;;5053237;28;20221;-79
2021/05/03 11:52:36;;;;;;;10.67;8.77;;;22.70;50.00;;;;;;5050365;28;20220;-79
2021/05/03 11:55:24;;;;;;;9.60;8.10;;;22.40;50.00;;;;;;5054205;28;20248;-79
2021/05/03 11:58:10;;;;;;;8.93;7.57;;;22.00;50.80;;;;;;5051180;28;20210;-80
2021/05/03 12:00:55;;;;;;;8.63;7.13;;;21.70;51.50;;;;;;5050920;28;20223;-79
2021/05/03 12:03:42;;;;;;;18.57;10.10;;;21.40;52.70;;;;;;5054027;28;20234;-79
2021/05/03 12:06:32;;;;;;;11.67;7.30;;;21.30;52.30;;;;;;5049403;28;21019;-79
2021/05/03 12:09:18;;;;;;;9.07;8.00;;;21.20;52.30;;;;;;5049095;28;20218;-80
2021/05/03 12:12:05;;;;;;;11.37;8.07;;;21.00;53.10;;;;;;5047857;28;20244;-79
2021/05/03 12:14:51;;;;;;;9.37;6.90;;;20.90;54.20;;;;;;5052431;28;20219;-79
2021/05/03 12:17:37;;;;;;;11.77;7.60;;;20.80;54.10;;;;;;5052606;28;20207;-78
2021/05/03 12:20:26;;;;;;;12.60;8.17;;;20.70;53.70;;;;;;5047889;28;20228;-78
2021/05/03 12:23:13;;;;;;;8.93;7.57;;;20.60;53.10;;;;;;5052349;28;20215;-80
2021/05/03 12:26:00;;;;;;;9.73;6.80;;;20.60;53.10;;;;;;5049351;28;20584;-78
2021/05/03 12:28:48;;;;;;;14.20;7.93;;;20.50;53.10;;;;;;5048428;28;20740;-78
2021/05/03 12:31:34;;;;;;;10.00;7.10;;;20.50;54.00;;;;;;5064297;28;20225;-79
2021/05/03 12:34:21;;;;;;;10.13;7.97;;;20.50;53.50;;;;;;5071570;28;20218;-79
2021/05/03 12:37:11;;;;;;;10.97;9.33;;;20.50;53.90;;;;;;5052842;28;20202;-78
2021/05/03 12:40:05;;;;;;;11.90;7.80;;;20.30;53.50;;;;;;5054123;28;20313;-79
2021/05/03 12:42:52;;;;;;;8.67;7.20;;;20.20;54.90;;;;;;5052599;28;20204;-78
2021/05/03 12:45:51;;;;;;;10.73;7.03;;;20.00;55.70;;;;;;5048444;28;20224;-79
2021/05/03 12:48:42;;;;;;;12.03;7.40;;;19.80;56.20;;;;;;5049566;28;20252;-79
2021/05/03 12:51:40;;;;;;;10.30;7.10;;;19.70;55.80;;;;;;5053251;28;20305;-79
2021/05/03 12:54:40;;;;;;;8.77;6.20;;;19.80;55.10;;;;;;5051024;28;20241;-78
2021/05/03 12:57:43;;;;;;;10.00;6.77;;;20.00;55.30;;;;;;5049080;28;20285;-81
2021/05/03 13:00:48;;;;;;;7.80;6.33;;;20.30;55.50;;;;;;5049681;28;20318;-79
2021/05/03 13:03:43;;;;;;;10.63;6.87;;;20.60;54.30;;;;;;5048162;28;20222;-79
2021/05/03 13:06:37;;;;;;;9.27;7.07;;;20.90;54.80;;;;;;5045513;28;20202;-79
2021/05/03 13:09:34;;;;;;;8.23;6.23;;;21.20;52.30;;;;;;5047240;28;20258;-79
2021/05/03 13:12:44;;;;;;;8.43;6.50;;;21.40;51.70;;;;;;5046551;28;20701;-79
2021/05/03 13:25:05;;;;;;;6.97;5.87;;;21.50;50.10;;;;;;5044481;28;20253;-79
2021/05/03 13:28:07;;;;;;;9.17;6.67;;;21.40;50.20;;;;;;5041719;28;20285;-79
2021/05/03 13:30:52;;;;;;;7.77;6.43;;;21.40;50.40;;;;;;5047220;28;20238;-78
2021/05/03 13:33:39;;;;;;;8.70;5.40;;;21.30;51.50;;;;;;5041430;28;20211;-79
2021/05/03 13:36:24;;;;;;;9.67;6.50;;;21.30;51.00;;;;;;5040627;28;20398;-79
2021/05/03 13:39:10;;;;;;;7.47;6.20;;;21.30;50.50;;;;;;5046562;28;20583;-79
2021/05/03 13:41:56;;;;;;;6.10;4.97;;;21.20;50.00;;;;;;5038170;28;20273;-78
2021/05/03 13:44:43;;;;;;;6.90;5.90;;;21.20;50.10;;;;;;5047405;28;20217;-78
2021/05/03 13:47:28;;;;;;;8.43;5.27;;;21.00;48.30;;;;;;5044129;28;20283;-78
2021/05/03 13:50:16;;;;;;;7.57;5.63;;;21.00;48.90;;;;;;5036704;28;20234;-78
2021/05/03 13:53:01;;;;;;;6.87;4.80;;;20.90;49.20;;;;;;5045571;28;20238;-78
2021/05/03 13:55:47;;;;;;;7.70;5.50;;;20.80;50.30;;;;;;5032473;28;20230;-78
2021/05/03 13:58:32;;;;;;;9.73;6.40;;;20.80;50.30;;;;;;5046599;28;20291;-78
2021/05/03 14:01:18;;;;;;;7.10;5.13;;;20.70;50.30;;;;;;5046151;28;21017;-78
2021/05/03 14:04:04;;;;;;;7.77;5.73;;;20.60;49.70;;;;;;5039807;28;20278;-78
2021/05/03 14:06:50;;;;;;;7.87;6.13;;;20.60;50.60;;;;;;5033803;28;20238;-78
2021/05/03 14:09:35;;;;;;;7.30;5.70;;;20.60;50.50;;;;;;5045028;28;21654;-78
2021/05/03 14:12:20;;;;;;;4.97;4.20;;;20.50;49.90;;;;;;5044775;28;20263;-79
2021/05/03 14:15:06;;;;;;;8.90;4.43;;;20.80;50.70;;;;;;5034820;28;20341;-78
2021/05/03 14:17:52;;;;;;;8.27;5.83;;;21.00;49.40;;;;;;5034008;28;20254;-78
2021/05/03 14:20:37;;;;;;;6.37;4.80;;;21.10;48.50;;;;;;5041740;28;20219;-78
2021/05/03 14:23:24;;;;;;;5.53;4.73;;;21.20;48.60;;;;;;5038185;28;20209;-78
2021/05/03 14:26:10;;;;;;;7.87;5.17;;;21.20;47.80;;;;;;5043355;28;20523;-79
2021/05/03 14:29:01;;;;;;;6.13;4.27;;;21.20;47.50;;;;;;5052614;28;20678;-79
2021/05/03 14:31:48;;;;;;;7.43;4.47;;;21.10;47.30;;;;;;5052311;28;20303;-78
2021/05/03 14:34:34;;;;;;;6.43;4.50;;;21.00;48.20;;;;;;5055786;28;20590;-77
2021/05/03 14:37:19;;;;;;;6.67;5.00;;;20.80;47.40;;;;;;5052833;28;20290;-78
2021/05/03 14:40:06;;;;;;;7.47;5.10;;;21.00;46.70;;;;;;5052585;28;20492;-78
2021/05/03 14:42:55;;;;;;;5.63;4.23;;;21.00;47.70;;;;;;5051617;28;20240;-78
2021/05/03 14:45:47;;;;;;;6.03;4.17;;;21.00;47.50;;;;;;5058340;28;20224;-77